2003 KALUNDE (2003062S10080)


On this page: IBTrACS data - Map and Plots - Positions - Intensities - Original source data

Summary

Start Mar 3
End Mar 17
Basin SI
LMI 140 kt
Sources jtwc_sh
reunion
neumann
In WMO? Yes
Previous storm 2003 ERICA (SP)
Previous in basin 2003 HARRIET (SI)
Concurrent storms 2003 JAPHET (SI)
2003 HARRIET (SI)
2003 ERICA (SP)
2003 KALUNDE (SI)
2003 11F (SP)
2003 CRAIG (SI)
2003 ESETA (SP)
Next in basin 2003 CRAIG (SI)
Next storm 2003 11F (SP)

top of page IBTrACS Data: File Access

top of page HURSAT Data: File Access

Image of storm

top of page Plots:

Map of storm track will not appear if FTP is down
Time series of cyclone Maximum Sustained Wind will not appear if FTP is down
Time series of cyclone Minimum Central Pressure will not appear if FTP is down

top of page Track Data:Position

jtwc_sh reunion neumann
Date Lat Lon Lat Lon Lat Lon
2003-03-03 06:00:00 -10.4 80.4
2003-03-03 12:00:00 -10.8 80.2
2003-03-03 18:00:00 -10.7 78.4 -11.0 79.7 -10.7 78.4
2003-03-04 00:00:00 -10.9 78.5 -11.2 79.2 -10.9 78.5
2003-03-04 06:00:00 -11.2 78.6 -11.3 78.8 -11.2 78.6
2003-03-04 12:00:00 -11.5 78.7 -11.5 78.7 -11.5 78.7
2003-03-04 18:00:00 -11.5 78.4 -11.3 78.2 -11.5 78.4
2003-03-05 00:00:00 -11.5 78.0 -11.2 77.7 -11.5 78.0
2003-03-05 06:00:00 -11.3 77.5 -11.1 77.3 -11.3 77.5
2003-03-05 12:00:00 -11.1 77.0 -11.0 77.3 -11.1 77.0
2003-03-05 18:00:00 -10.9 76.7 -10.9 77.2 -10.9 76.7
2003-03-06 00:00:00 -11.1 76.5 -10.9 76.8 -11.1 76.5
2003-03-06 06:00:00 -11.2 76.2 -11.3 76.2 -11.2 76.2
2003-03-06 12:00:00 -11.5 75.7 -11.5 75.6 -11.5 75.7
2003-03-06 18:00:00 -11.8 75.0 -11.7 75.1 -11.8 75.0
2003-03-07 00:00:00 -12.1 74.3 -12.2 74.4 -12.1 74.3
2003-03-07 06:00:00 -12.5 73.6 -12.8 73.5 -12.5 73.6
2003-03-07 12:00:00 -13.0 72.8 -13.1 72.6 -13.0 72.8
2003-03-07 18:00:00 -13.4 72.0 -13.5 71.8 -13.4 72.0
2003-03-08 00:00:00 -13.7 71.2 -13.8 71.1 -13.7 71.2
2003-03-08 06:00:00 -14.0 70.4 -14.0 70.4 -14.0 70.4
2003-03-08 12:00:00 -14.4 69.7 -14.4 69.7 -14.4 69.7
2003-03-08 18:00:00 -14.8 69.2 -14.7 69.3 -14.8 69.2
2003-03-09 00:00:00 -15.3 68.8 -15.4 68.6 -15.3 68.8
2003-03-09 06:00:00 -15.7 68.3 -15.7 68.2 -15.7 68.3
jtwc_sh reunion neumann
2003-03-09 12:00:00 -16.1 67.9 -16.1 68.0 -16.1 67.9
2003-03-09 18:00:00 -16.4 67.5 -16.4 67.6 -16.4 67.5
2003-03-10 00:00:00 -16.7 67.1 -16.7 67.2 -16.7 67.1
2003-03-10 06:00:00 -17.0 66.7 -17.1 66.7 -17.0 66.7
2003-03-10 12:00:00 -17.4 66.4 -17.4 66.3 -17.4 66.4
2003-03-10 18:00:00 -17.7 66.0 -17.7 66.0 -17.7 66.0
2003-03-11 00:00:00 -17.9 65.6 -18.0 65.5 -17.9 65.6
2003-03-11 06:00:00 -18.1 65.2 -18.2 65.2 -18.1 65.2
2003-03-11 12:00:00 -18.4 64.9 -18.4 64.9 -18.4 64.9
2003-03-11 18:00:00 -18.6 64.6 -18.7 64.6 -18.6 64.6
2003-03-12 00:00:00 -18.8 64.3 -18.8 64.2 -18.8 64.3
2003-03-12 06:00:00 -19.1 64.1 -19.1 64.0 -19.1 64.1
2003-03-12 12:00:00 -19.5 63.9 -19.6 63.9 -19.5 63.9
2003-03-12 18:00:00 -20.0 63.9 -20.0 63.8 -20.0 63.9
2003-03-13 00:00:00 -20.5 64.1 -20.4 63.8 -20.5 64.1
2003-03-13 06:00:00 -21.1 64.3 -21.0 63.9 -21.1 64.3
2003-03-13 12:00:00 -21.8 64.5 -21.8 64.2 -21.8 64.5
2003-03-13 18:00:00 -22.4 64.8 -22.8 64.5 -22.4 64.8
2003-03-14 00:00:00 -23.2 64.9 -23.5 64.6 -23.2 64.9
2003-03-14 06:00:00 -24.0 65.1 -24.2 64.8 -24.0 65.1
2003-03-14 12:00:00 -24.8 65.2 -25.0 65.1 -24.8 65.2
2003-03-14 18:00:00 -25.6 65.3 -25.8 65.3 -25.6 65.3
2003-03-15 00:00:00 -26.5 65.6 -26.5 65.8 -26.5 65.6
2003-03-15 06:00:00 -27.5 66.1 -27.6 66.3 -27.5 66.1
jtwc_sh reunion neumann
2003-03-15 12:00:00 -28.7 66.2 -28.9 66.3 -28.7 66.2
2003-03-15 18:00:00 -29.6 66.4 -29.8 66.3 -29.6 66.4
2003-03-16 00:00:00 -30.4 66.7 -32.0 66.5 -30.4 66.7
2003-03-16 06:00:00 -34.0 67.0
2003-03-16 12:00:00 -35.8 67.4
2003-03-16 18:00:00 -37.1 68.3
2003-03-17 00:00:00 -38.5 70.2
2003-03-17 06:00:00 -39.9 72.4

top of pageTrack Data:Intensity

jtwc_sh reunion neumann
Date Wind Pres Wind Pres Wind Pres
2003-03-03 06:00:00 20. 1005.
2003-03-03 12:00:00 20. 1004.
2003-03-03 18:00:00 15. 1006. 25. 1002. 15.
2003-03-04 00:00:00 15. 1006. 25. 1001. 15.
2003-03-04 06:00:00 25. 1002. 25. 1000. 25.
2003-03-04 12:00:00 25. 1002. 30. 998. 25.
2003-03-04 18:00:00 30. 1000. 35. 995. 30.
2003-03-05 00:00:00 35. 997. 40. 992. 35.
2003-03-05 06:00:00 30. 1000. 40. 992. 30.
2003-03-05 12:00:00 35. 997. 40. 992. 35.
2003-03-05 18:00:00 40. 994. 40. 992. 40.
2003-03-06 00:00:00 40. 994. 40. 990. 40.
2003-03-06 06:00:00 45. 991. 45. 987. 45.
2003-03-06 12:00:00 55. 984. 53. 980. 55.
2003-03-06 18:00:00 55. 984. 53. 980. 55.
2003-03-07 00:00:00 65. 976. 65. 970. 65.
2003-03-07 06:00:00 75. 967. 75. 960. 75.
2003-03-07 12:00:00 100. 944. 85. 947. 100.
2003-03-07 18:00:00 105. 938. 100. 930. 105.
2003-03-08 00:00:00 130. 910. 115. 910. 130.
2003-03-08 06:00:00 140. 898. 115. 910. 140.
2003-03-08 12:00:00 130. 910. 115. 910. 130.
2003-03-08 18:00:00 130. 910. 115. 910. 130.
2003-03-09 00:00:00 120. 922. 110. 915. 120.
2003-03-09 06:00:00 120. 922. 110. 920. 120.
jtwc_sh reunion neumann
2003-03-09 12:00:00 115. 927. 105. 925. 115.
2003-03-09 18:00:00 115. 927. 105. 925. 115.
2003-03-10 00:00:00 115. 927. 100. 930. 115.
2003-03-10 06:00:00 115. 927. 95. 935. 115.
2003-03-10 12:00:00 100. 944. 90. 940. 100.
2003-03-10 18:00:00 100. 944. 90. 940. 100.
2003-03-11 00:00:00 100. 944. 85. 947. 100.
2003-03-11 06:00:00 100. 944. 85. 947. 100.
2003-03-11 12:00:00 100. 944. 85. 947. 100.
2003-03-11 18:00:00 100. 944. 85. 947. 100.
2003-03-12 00:00:00 105. 938. 85. 950. 105.
2003-03-12 06:00:00 105. 938. 80. 955. 105.
2003-03-12 12:00:00 105. 938. 80. 955. 105.
2003-03-12 18:00:00 90. 954. 80. 955. 90.
2003-03-13 00:00:00 90. 954. 75. 960. 90.
2003-03-13 06:00:00 90. 954. 70. 965. 90.
2003-03-13 12:00:00 85. 958. 70. 965. 85.
2003-03-13 18:00:00 80. 963. 65. 970. 80.
2003-03-14 00:00:00 65. 976. 60. 975. 65.
2003-03-14 06:00:00 65. 976. 55. 980. 65.
2003-03-14 12:00:00 55. 984. 50. 985. 55.
2003-03-14 18:00:00 50. 987. 50. 985. 50.
2003-03-15 00:00:00 40. 994. 50. 987. 40.
2003-03-15 06:00:00 35. 997. 50. 988. 35.
jtwc_sh reunion neumann
2003-03-15 12:00:00 30. 1000. 50. 988. 30.
2003-03-15 18:00:00 25. 1002. 50. 990. 25.
2003-03-16 00:00:00 25. 1002. 60. 990. 25.
2003-03-16 06:00:00 60. 990.
2003-03-16 12:00:00 55. 992.
2003-03-16 18:00:00 50. 994.
2003-03-17 00:00:00 45. 995.
2003-03-17 06:00:00 40. 997.

top of page Links to source data

Source Source file Format
jtwc_sh bsh232003.txt ATCF
reunion WMO-Best-Tracks.txt:Line=20385:kalunde WMO (old format)
neumann tracks.sh:Storm=1273:KALUNDE:BSH232003:JTWC HURDAT